Time;durP1;ratioP1;P1;durP2;ratioP2;P2;SDS_P1;SDS_P2;PMS_P1;PMS_P2;Temp;Humidity;BMP_temperature;BMP_pressure;BME280_temperature;BME280_humidity;BME280_pressure;Samples;Min_cycle;Max_cycle;Signal;HPM_P1;HPM_P2
2023/04/19 00:01:10;;;;;;;10.52;6.95;;;;;;;-145.50;100.00;65435.88;6144729;23;20388;-69
2023/04/19 00:03:36;;;;;;;10.23;7.47;;;;;;;-145.50;100.00;65435.88;6144134;23;20104;-69
2023/04/19 00:06:03;;;;;;;11.85;7.07;;;;;;;-145.50;100.00;65435.88;6148521;23;20036;-68
2023/04/19 00:08:29;;;;;;;10.38;7.45;;;;;;;-145.50;100.00;65435.88;6139910;23;20061;-68
2023/04/19 00:10:56;;;;;;;10.52;7.93;;;;;;;-145.50;100.00;65435.88;6137520;23;20025;-71
2023/04/19 00:13:22;;;;;;;11.93;7.90;;;;;;;-145.50;100.00;65435.88;6139307;23;20061;-68
2023/04/19 00:15:49;;;;;;;13.10;7.85;;;;;;;-145.50;100.00;65435.88;6149528;23;20029;-69
2023/04/19 00:18:15;;;;;;;12.38;8.60;;;;;;;-145.50;100.00;65435.88;6149130;23;20049;-68
2023/04/19 00:20:42;;;;;;;11.85;8.40;;;;;;;-145.50;100.00;65435.88;6113631;23;20514;-69
2023/04/19 00:23:08;;;;;;;10.23;6.95;;;;;;;-145.50;100.00;65435.88;6144107;23;20037;-69
2023/04/19 00:25:35;;;;;;;11.20;7.70;;;;;;;-145.50;100.00;65435.88;6135368;23;20045;-68
2023/04/19 00:28:02;;;;;;;11.50;8.25;;;;;;;-145.50;100.00;65435.88;6148356;23;20404;-70
2023/04/19 00:30:29;;;;;;;12.07;7.97;;;;;;;-145.50;100.00;65435.88;6140002;23;20078;-69
2023/04/19 00:32:55;;;;;;;11.02;6.75;;;;;;;-145.50;100.00;65435.88;6148672;23;20100;-68
2023/04/19 00:35:22;;;;;;;10.85;7.60;;;;;;;-145.50;100.00;65435.88;6123401;23;20037;-68
2023/04/19 00:37:48;;;;;;;10.80;8.57;;;;;;;-145.50;100.00;65435.88;6135949;23;20030;-70
2023/04/19 00:40:15;;;;;;;12.82;8.30;;;;;;;-145.50;100.00;65435.88;6116775;23;20082;-69
2023/04/19 00:42:41;;;;;;;10.80;6.03;;;;;;;-145.50;100.00;65435.88;6114193;23;20096;-68
2023/04/19 00:45:08;;;;;;;11.02;8.27;;;;;;;-145.50;100.00;65435.88;6148402;23;20483;-70
2023/04/19 00:47:35;;;;;;;10.50;7.57;;;;;;;-145.50;100.00;65435.88;6140028;23;20029;-68
2023/04/19 00:50:05;;;;;;;8.90;6.05;;;;;;;-145.50;100.00;65435.88;6146216;23;20117;-68
2023/04/19 00:52:33;;;;;;;12.77;8.50;;;;;;;-145.50;100.00;65435.88;6142442;23;20056;-68
2023/04/19 00:55:00;;;;;;;12.13;8.68;;;;;;;-145.50;100.00;65435.88;6134654;23;20520;-68
2023/04/19 00:57:28;;;;;;;13.13;8.50;;;;;;;-145.50;100.00;65435.88;6149487;23;20025;-70
2023/04/19 00:59:55;;;;;;;11.33;8.10;;;;;;;-145.50;100.00;65435.88;6141731;23;20060;-68
2023/04/19 01:02:22;;;;;;;11.77;8.48;;;;;;;-145.50;100.00;65435.88;6149905;23;20033;-70
2023/04/19 01:04:49;;;;;;;10.52;7.85;;;;;;;-145.50;100.00;65435.88;6141628;23;20029;-69
2023/04/19 01:07:16;;;;;;;11.27;8.80;;;;;;;-145.50;100.00;65435.88;6141192;23;20084;-68
2023/04/19 01:09:44;;;;;;;13.57;8.75;;;;;;;-145.50;100.00;65435.88;6145871;23;20065;-68
2023/04/19 01:12:10;;;;;;;11.48;8.07;;;;;;;-145.50;100.00;65435.88;6141739;23;20080;-70
2023/04/19 01:14:37;;;;;;;12.35;8.48;;;;;;;-145.50;100.00;65435.88;6124702;23;20057;-68
2023/04/19 01:17:04;;;;;;;13.02;8.40;;;;;;;-145.50;100.00;65435.88;6142985;23;20028;-69
2023/04/19 01:19:31;;;;;;;12.40;8.55;;;;;;;-145.50;100.00;65435.88;6147600;23;20308;-69
2023/04/19 01:21:57;;;;;;;11.77;8.85;;;;;;;-145.50;100.00;65435.88;6133882;23;20067;-69
2023/04/19 01:24:24;;;;;;;11.88;7.95;;;;;;;-145.50;100.00;65435.88;6123328;23;20100;-68
2023/04/19 01:26:50;;;;;;;11.93;8.27;;;;;;;-145.50;100.00;65435.88;6150571;23;20076;-69
2023/04/19 01:29:17;;;;;;;10.85;8.40;;;;;;;-145.50;100.00;65435.88;6142323;23;20033;-69
2023/04/19 01:31:48;;;;;;;14.15;9.15;;;;;;;-145.50;100.00;65435.88;6150095;23;20029;-68
2023/04/19 01:34:14;;;;;;;10.65;7.80;;;;;;;-145.50;100.00;65435.88;6137510;23;20025;-69
2023/04/19 01:36:41;;;;;;;11.50;8.73;;;;;;;-145.50;100.00;65435.88;6144870;23;20112;-69
2023/04/19 01:39:07;;;;;;;15.35;9.10;;;;;;;-145.50;100.00;65435.88;6142146;23;20734;-69
2023/04/19 01:41:34;;;;;;;11.65;8.60;;;;;;;-145.50;100.00;65435.88;6150691;23;20360;-69
2023/04/19 01:44:00;;;;;;;13.00;9.02;;;;;;;-145.50;100.00;65435.88;6124080;23;20029;-68
2023/04/19 01:46:27;;;;;;;12.52;8.73;;;;;;;-145.50;100.00;65435.88;6115713;23;20207;-69
2023/04/19 01:48:53;;;;;;;12.05;8.45;;;;;;;-145.50;100.00;65435.88;6144740;23;20029;-69
2023/04/19 01:51:22;;;;;;;12.02;8.20;;;;;;;-145.50;100.00;65435.88;6135354;23;20242;-69
2023/04/19 01:53:52;;;;;;;15.50;9.30;;;;;;;-145.50;100.00;65435.88;6150589;23;20029;-68
2023/04/19 01:56:20;;;;;;;11.82;8.25;;;;;;;-145.50;100.00;65435.88;6117193;23;20356;-69
2023/04/19 01:58:47;;;;;;;12.73;8.95;;;;;;;-145.50;100.00;65435.88;6148978;23;20084;-68
2023/04/19 02:01:13;;;;;;;10.70;7.90;;;;;;;-145.50;100.00;65435.88;6149808;23;20549;-71
2023/04/19 02:03:40;;;;;;;12.18;8.80;;;;;;;-145.50;100.00;65435.88;6132869;23;20025;-68
2023/04/19 02:06:11;;;;;;;13.18;7.78;;;;;;;-145.50;100.00;65435.88;6123727;23;20028;-68
2023/04/19 02:08:39;;;;;;;23.20;10.98;;;;;;;-145.50;100.00;65435.88;6141915;23;20029;-70
2023/04/19 02:11:10;;;;;;;12.35;8.40;;;;;;;-145.50;100.00;65435.88;6124512;23;20422;-69
2023/04/19 02:13:36;;;;;;;10.95;8.55;;;;;;;-145.50;100.00;65435.88;6143265;23;20036;-70
2023/04/19 02:16:04;;;;;;;12.07;8.52;;;;;;;-145.50;100.00;65435.88;6143782;23;20036;-70
2023/04/19 02:18:31;;;;;;;14.38;9.20;;;;;;;-145.50;100.00;65435.88;6143390;23;20029;-69
2023/04/19 02:20:58;;;;;;;13.38;8.77;;;;;;;-145.50;100.00;65435.88;6141740;23;20029;-70
2023/04/19 02:23:25;;;;;;;13.35;8.82;;;;;;;-145.50;100.00;65435.88;6150261;23;20051;-69
2023/04/19 02:25:51;;;;;;;14.52;8.60;;;;;;;-145.50;100.00;65435.88;6142194;23;20242;-69
2023/04/19 02:28:18;;;;;;;13.82;8.27;;;;;;;-145.50;100.00;65435.88;6149743;23;20102;-68
2023/04/19 02:30:44;;;;;;;11.48;7.68;;;;;;;-145.50;100.00;65435.88;6145067;23;20027;-68
2023/04/19 02:33:11;;;;;;;12.70;7.95;;;;;;;-145.50;100.00;65435.88;6139095;23;20030;-69
2023/04/19 02:35:37;;;;;;;12.27;8.18;;;;;;;-145.50;100.00;65435.88;6150145;23;20104;-68
2023/04/19 02:38:04;;;;;;;15.27;8.70;;;;;;;-145.50;100.00;65435.88;6116845;23;20025;-69
2023/04/19 02:40:30;;;;;;;12.88;8.30;;;;;;;-145.50;100.00;65435.88;6149087;23;20025;-69
2023/04/19 02:42:57;;;;;;;11.55;7.65;;;;;;;-145.50;100.00;65435.88;6138074;23;20033;-68
2023/04/19 02:45:24;;;;;;;12.20;7.35;;;;;;;-145.50;100.00;65435.88;6143258;23;20096;-68
2023/04/19 02:47:50;;;;;;;13.68;8.85;;;;;;;-145.50;100.00;65435.88;6123956;23;20400;-69
2023/04/19 02:50:17;;;;;;;15.50;8.27;;;;;;;-145.50;100.00;65435.88;6116720;23;20022;-69
2023/04/19 02:52:43;;;;;;;11.35;7.90;;;;;;;-145.50;100.00;65435.88;6150750;23;20029;-69
2023/04/19 02:55:10;;;;;;;10.85;8.27;;;;;;;-145.50;100.00;65435.88;6117895;23;20029;-68
2023/04/19 02:57:36;;;;;;;12.13;7.85;;;;;;;-145.50;100.00;65435.88;6147990;23;20076;-68
2023/04/19 03:00:05;;;;;;;13.18;8.25;;;;;;;-145.50;100.00;65435.88;6135057;23;20468;-70
2023/04/19 03:02:31;;;;;;;11.98;8.10;;;;;;;-145.50;100.00;65435.88;6148366;23;20120;-68
2023/04/19 03:04:58;;;;;;;12.27;7.93;;;;;;;-145.50;100.00;65435.88;6149280;23;20418;-69
2023/04/19 03:07:25;;;;;;;9.82;7.53;;;;;;;-145.50;100.00;65435.88;6140924;23;20049;-69
2023/04/19 03:09:51;;;;;;;13.27;7.40;;;;;;;-145.50;100.00;65435.88;6149246;23;20105;-68
2023/04/19 03:12:18;;;;;;;13.93;6.97;;;;;;;-145.50;100.00;65435.88;6135555;23;20021;-69
2023/04/19 03:14:44;;;;;;;11.95;7.07;;;;;;;-145.50;100.00;65435.88;6143247;23;20107;-68
2023/04/19 03:17:11;;;;;;;9.43;6.05;;;;;;;-145.50;100.00;65435.88;6142151;23;20165;-69
2023/04/19 03:19:37;;;;;;;11.00;7.07;;;;;;;-145.50;100.00;65435.88;6148698;23;20388;-68
2023/04/19 03:22:04;;;;;;;8.48;6.40;;;;;;;-145.50;100.00;65435.88;6123519;23;20029;-68
2023/04/19 03:24:31;;;;;;;10.50;6.85;;;;;;;-145.50;100.00;65435.88;6140727;23;20425;-68
2023/04/19 03:26:57;;;;;;;12.70;6.38;;;;;;;-145.50;100.00;65435.88;6116565;23;20029;-68
2023/04/19 03:29:24;;;;;;;13.00;6.38;;;;;;;-145.50;100.00;65435.88;6139728;23;20025;-68
2023/04/19 03:31:53;;;;;;;9.43;6.32;;;;;;;-145.50;100.00;65435.88;6123700;23;20080;-68
2023/04/19 03:34:20;;;;;;;9.98;6.55;;;;;;;-145.50;100.00;65435.88;6142112;23;20029;-68
2023/04/19 03:36:47;;;;;;;9.38;6.10;;;;;;;-145.50;100.00;65435.88;6149479;23;20487;-68
2023/04/19 03:39:14;;;;;;;12.18;6.40;;;;;;;-145.50;100.00;65435.88;6118911;23;20034;-68
2023/04/19 03:41:40;;;;;;;10.32;6.72;;;;;;;-145.50;100.00;65435.88;6139138;23;20105;-67
2023/04/19 03:44:07;;;;;;;9.88;6.57;;;;;;;-145.50;100.00;65435.88;6124788;23;20026;-69
2023/04/19 03:46:33;;;;;;;9.10;6.35;;;;;;;-145.50;100.00;65435.88;6142602;23;20025;-68
2023/04/19 03:49:00;;;;;;;10.02;6.20;;;;;;;-145.50;100.00;65435.88;6150199;23;20045;-68
2023/04/19 03:51:26;;;;;;;9.23;6.22;;;;;;;-145.50;100.00;65435.88;6138754;23;20021;-68
2023/04/19 03:53:53;;;;;;;7.20;5.10;;;;;;;-145.50;100.00;65435.88;6144538;23;20029;-69
2023/04/19 03:56:19;;;;;;;9.57;6.28;;;;;;;-145.50;100.00;65435.88;6149694;23;20029;-68
2023/04/19 03:58:46;;;;;;;9.85;5.78;;;;;;;-145.50;100.00;65435.88;6116423;23;20029;-68
2023/04/19 04:01:20;;;;;;;9.60;5.97;;;;;;;-145.50;100.00;65435.88;6126209;23;20475;-68
2023/04/19 04:03:47;;;;;;;10.15;6.00;;;;;;;-145.50;100.00;65435.88;6146510;23;20020;-68
2023/04/19 04:06:14;;;;;;;9.10;5.67;;;;;;;-145.50;100.00;65435.88;6157835;23;20041;-71
2023/04/19 04:08:41;;;;;;;8.38;5.82;;;;;;;-145.50;100.00;65435.88;6162833;23;20005;-70
2023/04/19 04:11:07;;;;;;;8.35;5.55;;;;;;;-145.50;100.00;65435.88;6165749;23;20025;-68
2023/04/19 04:13:34;;;;;;;9.85;5.80;;;;;;;-145.50;100.00;65435.88;6172721;23;20020;-68
2023/04/19 04:16:01;;;;;;;8.73;6.47;;;;;;;-145.50;100.00;65435.88;6145902;23;20468;-68
2023/04/19 04:18:27;;;;;;;8.73;5.65;;;;;;;-145.50;100.00;65435.88;6150606;23;20028;-68
2023/04/19 04:20:54;;;;;;;9.70;5.95;;;;;;;-145.50;100.00;65435.88;6134284;23;20029;-70
2023/04/19 04:23:21;;;;;;;10.18;5.65;;;;;;;-145.50;100.00;65435.88;6145723;23;20029;-68
2023/04/19 04:26:01;;;;;;;10.43;5.20;;;;;;;-145.50;100.00;65435.88;6117475;23;20361;-67
2023/04/19 04:28:27;;;;;;;16.48;4.65;;;;;;;-145.50;100.00;65435.88;6149343;23;20021;-68
2023/04/19 04:30:59;;;;;;;7.97;5.43;;;;;;;-145.50;100.00;65435.88;6150171;23;20104;-68
2023/04/19 04:33:27;;;;;;;8.25;5.80;;;;;;;-145.50;100.00;65435.88;6138237;23;20338;-68
2023/04/19 04:35:54;;;;;;;12.10;6.65;;;;;;;-145.50;100.00;65435.88;6146491;23;20021;-68
2023/04/19 04:38:21;;;;;;;8.45;5.32;;;;;;;-145.50;100.00;65435.88;6117175;23;20444;-68
2023/04/19 04:40:54;;;;;;;8.52;5.63;;;;;;;-145.50;100.00;65435.88;6150847;23;20083;-69
2023/04/19 04:43:22;;;;;;;9.00;5.85;;;;;;;-145.50;100.00;65435.88;6117343;23;20052;-68
2023/04/19 04:45:48;;;;;;;8.15;5.57;;;;;;;-145.50;100.00;65435.88;6125284;23;20415;-68
2023/04/19 04:48:15;;;;;;;9.07;5.43;;;;;;;-145.50;100.00;65435.88;6119188;23;20068;-68
2023/04/19 04:50:43;;;;;;;11.35;5.93;;;;;;;-145.50;100.00;65435.88;6138097;23;20060;-69
2023/04/19 04:53:11;;;;;;;8.10;5.40;;;;;;;-145.50;100.00;65435.88;6151576;23;20064;-69
2023/04/19 04:55:38;;;;;;;7.38;5.28;;;;;;;-145.50;100.00;65435.88;6120375;23;20910;-70
2023/04/19 04:58:05;;;;;;;9.85;5.65;;;;;;;-145.50;100.00;65435.88;6152294;23;20033;-68
2023/04/19 05:00:33;;;;;;;9.13;5.45;;;;;;;-145.50;100.00;65435.88;6114792;23;20021;-68
2023/04/19 05:03:01;;;;;;;7.35;5.25;;;;;;;-145.50;100.00;65435.88;6142119;23;20502;-69
2023/04/19 05:05:28;;;;;;;;;;;;;;;-145.50;100.00;65435.88;6147453;23;20040;-68
2023/04/19 05:07:55;;;;;;;8.85;5.70;;;;;;;-145.50;100.00;65435.88;6142385;23;20263;-68
2023/04/19 05:10:21;;;;;;;8.05;5.05;;;;;;;-145.50;100.00;65435.88;6149549;23;20199;-69
2023/04/19 05:12:48;;;;;;;8.60;5.45;;;;;;;-145.50;100.00;65435.88;6116583;23;20044;-67
2023/04/19 05:15:14;;;;;;;8.50;5.38;;;;;;;-145.50;100.00;65435.88;6145585;23;20029;-68
2023/04/19 05:17:41;;;;;;;8.13;5.28;;;;;;;-145.50;100.00;65435.88;6136160;23;20052;-67
2023/04/19 05:20:09;;;;;;;7.47;4.97;;;;;;;-145.50;100.00;65435.88;6149695;23;20770;-67
2023/04/19 05:22:36;;;;;;;7.25;5.50;;;;;;;-145.50;100.00;65435.88;6150730;23;20067;-67
2023/04/19 05:25:03;;;;;;;9.20;5.38;;;;;;;-145.50;100.00;65435.88;6115891;23;20335;-68
2023/04/19 05:27:29;;;;;;;7.70;4.90;;;;;;;-145.50;100.00;65435.88;6124525;23;20029;-68
2023/04/19 05:29:56;;;;;;;8.27;5.45;;;;;;;-145.50;100.00;65435.88;6135986;23;20026;-68
2023/04/19 05:32:22;;;;;;;8.65;5.53;;;;;;;-145.50;100.00;65435.88;6118149;23;20427;-67
2023/04/19 05:34:49;;;;;;;7.47;5.13;;;;;;;-145.50;100.00;65435.88;6141621;23;20108;-69
2023/04/19 05:37:15;;;;;;;8.85;5.00;;;;;;;-145.50;100.00;65435.88;6148928;23;20036;-68
2023/04/19 05:39:41;;;;;;;8.85;5.10;;;;;;;-145.50;100.00;65435.88;6150436;23;20039;-67
2023/04/19 05:42:10;;;;;;;10.52;5.68;;;;;;;-145.50;100.00;65435.88;6141338;23;20349;-69
2023/04/19 05:44:36;;;;;;;7.55;4.90;;;;;;;-145.50;100.00;65435.88;6144855;23;20068;-70
2023/04/19 05:47:03;;;;;;;7.43;5.10;;;;;;;-145.50;100.00;65435.88;6137891;23;20026;-68
2023/04/19 05:49:29;;;;;;;7.22;4.70;;;;;;;-145.50;100.00;65435.88;6150059;23;20078;-69
2023/04/19 05:51:56;;;;;;;8.25;5.00;;;;;;;-145.50;100.00;65435.88;6142387;23;20022;-68
2023/04/19 05:54:22;;;;;;;8.98;5.07;;;;;;;-145.50;100.00;65435.88;6148994;23;20039;-68
2023/04/19 05:56:49;;;;;;;7.88;4.97;;;;;;;-145.50;100.00;65435.88;6147282;23;20460;-69
2023/04/19 05:59:15;;;;;;;8.00;5.32;;;;;;;-145.50;100.00;65435.88;6132943;23;20037;-68
2023/04/19 06:01:42;;;;;;;7.32;4.55;;;;;;;-145.50;100.00;65435.88;6148241;23;20025;-68
2023/04/19 06:04:08;;;;;;;8.45;5.60;;;;;;;-145.50;100.00;65435.88;6142040;23;20029;-69
2023/04/19 06:06:36;;;;;;;8.65;5.35;;;;;;;-145.50;100.00;65435.88;6149319;23;20026;-68
2023/04/19 06:09:03;;;;;;;7.95;5.03;;;;;;;-145.50;100.00;65435.88;6142937;23;20084;-68
2023/04/19 06:11:29;;;;;;;7.35;4.57;;;;;;;-145.50;100.00;65435.88;6143266;23;20105;-67
2023/04/19 06:14:13;;;;;;;9.00;5.32;;;;;;;-145.50;100.00;65435.88;6144783;23;20162;-67
2023/04/19 06:16:42;;;;;;;8.23;4.70;;;;;;;-145.50;100.00;65435.88;6141168;23;20030;-70
2023/04/19 06:19:09;;;;;;;7.63;4.85;;;;;;;-145.50;100.00;65435.88;6150140;23;20068;-69
2023/04/19 06:21:35;;;;;;;8.05;5.03;;;;;;;-145.50;100.00;65435.88;6141501;23;20021;-68
2023/04/19 06:24:02;;;;;;;7.20;5.07;;;;;;;-145.50;100.00;65435.88;6150125;23;20068;-68
2023/04/19 06:26:28;;;;;;;7.13;4.50;;;;;;;-145.50;100.00;65435.88;6135009;23;20809;-69
2023/04/19 06:28:55;;;;;;;10.80;4.95;;;;;;;-145.50;100.00;65435.88;6121509;23;20065;-68
2023/04/19 06:31:22;;;;;;;7.40;4.13;;;;;;;-145.50;100.00;65435.88;6148678;23;20101;-70
2023/04/19 06:33:48;;;;;;;8.93;3.85;;;;;;;-145.50;100.00;65435.88;6141321;23;20455;-68
2023/04/19 06:36:15;;;;;;;8.68;4.90;;;;;;;-145.50;100.00;65435.88;6149922;23;20111;-68
2023/04/19 06:38:43;;;;;;;7.30;4.78;;;;;;;-145.50;100.00;65435.88;6140141;23;20172;-68
2023/04/19 06:41:09;;;;;;;6.00;3.88;;;;;;;-145.50;100.00;65435.88;6150021;23;20030;-69
2023/04/19 06:43:36;;;;;;;8.70;5.40;;;;;;;-145.50;100.00;65435.88;6115479;23;20026;-69
2023/04/19 06:46:06;;;;;;;7.10;4.57;;;;;;;-145.50;100.00;65435.88;6123872;23;20072;-68
2023/04/19 06:48:33;;;;;;;8.00;3.90;;;;;;;-145.50;100.00;65435.88;6147861;23;20025;-68
2023/04/19 06:51:00;;;;;;;9.27;4.50;;;;;;;-145.50;100.00;65435.88;6133480;23;20021;-68
2023/04/19 06:53:26;;;;;;;6.18;4.13;;;;;;;-145.50;100.00;65435.88;6147833;23;20113;-67
2023/04/19 06:55:58;;;;;;;10.18;4.30;;;;;;;-145.50;100.00;65435.88;6141499;23;20033;-68
2023/04/19 06:58:25;;;;;;;5.88;4.07;;;;;;;-145.50;100.00;65435.88;6149424;23;20467;-68
2023/04/19 07:00:52;;;;;;;7.63;4.53;;;;;;;-145.50;100.00;65435.88;6141063;23;20072;-68
2023/04/19 07:03:19;;;;;;;8.05;4.15;;;;;;;-145.50;100.00;65435.88;6147093;23;20096;-69
2023/04/19 07:05:47;;;;;;;5.88;3.45;;;;;;;-145.50;100.00;65435.88;6123561;23;20519;-68
2023/04/19 07:08:14;;;;;;;6.10;3.65;;;;;;;-145.50;100.00;65435.88;6139788;23;20076;-68
2023/04/19 07:10:42;;;;;;;10.10;4.10;;;;;;;-145.50;100.00;65435.88;6149116;23;20033;-69
2023/04/19 07:13:12;;;;;;;4.57;3.03;;;;;;;-145.50;100.00;65435.88;6138874;23;20331;-70
2023/04/19 07:15:38;;;;;;;8.40;3.75;;;;;;;-145.50;100.00;65435.88;6143234;23;20029;-67
2023/04/19 07:18:05;;;;;;;5.32;3.15;;;;;;;-145.50;100.00;65435.88;6144870;23;20394;-68
2023/04/19 07:20:32;;;;;;;5.30;3.50;;;;;;;-145.50;100.00;65435.88;6146545;23;20043;-68
2023/04/19 07:22:59;;;;;;;5.13;3.42;;;;;;;-145.50;100.00;65435.88;6149781;23;20472;-68
2023/04/19 07:25:26;;;;;;;5.13;2.63;;;;;;;-145.50;100.00;65435.88;6141020;23;20053;-69
2023/04/19 07:27:53;;;;;;;4.68;2.72;;;;;;;-145.50;100.00;65435.88;6143658;23;20104;-68
2023/04/19 07:30:20;;;;;;;6.32;2.97;;;;;;;-145.50;100.00;65435.88;6137272;23;20029;-68
2023/04/19 07:32:47;;;;;;;7.10;3.28;;;;;;;-145.50;100.00;65435.88;6149640;23;20022;-68
2023/04/19 07:35:13;;;;;;;5.90;3.22;;;;;;;-145.50;100.00;65435.88;6148938;23;20029;-67
2023/04/19 07:37:41;;;;;;;3.72;2.65;;;;;;;-145.50;100.00;65435.88;6140517;23;20104;-67
2023/04/19 07:40:08;;;;;;;7.85;3.15;;;;;;;-145.50;100.00;65435.88;6123346;23;20346;-67
2023/04/19 07:42:34;;;;;;;6.13;3.05;;;;;;;-145.50;100.00;65435.88;6130878;23;20388;-68
2023/04/19 07:45:01;;;;;;;5.10;2.53;;;;;;;-145.50;100.00;65435.88;6146006;23;20605;-68
2023/04/19 07:47:27;;;;;;;5.07;3.28;;;;;;;-145.50;100.00;65435.88;6139924;23;20025;-68
2023/04/19 07:49:55;;;;;;;4.78;2.70;;;;;;;-145.50;100.00;65435.88;6149161;23;20098;-69
2023/04/19 07:52:21;;;;;;;7.93;2.67;;;;;;;-145.50;100.00;65435.88;6148666;23;20474;-67
2023/04/19 07:54:48;;;;;;;5.93;2.80;;;;;;;-145.50;100.00;65435.88;6136028;23;20028;-68
2023/04/19 07:57:14;;;;;;;6.85;2.75;;;;;;;-145.50;100.00;65435.88;6141786;23;20091;-68
2023/04/19 07:59:40;;;;;;;6.85;3.10;;;;;;;-145.50;100.00;65435.88;6113722;23;20021;-68
2023/04/19 08:02:07;;;;;;;7.68;3.20;;;;;;;-145.50;100.00;65435.88;6148533;23;20352;-68
2023/04/19 08:04:34;;;;;;;3.60;2.83;;;;;;;-145.50;100.00;65435.88;6139745;23;20088;-68
2023/04/19 08:07:02;;;;;;;4.50;2.85;;;;;;;-145.50;100.00;65435.88;6149438;23;20026;-68
2023/04/19 08:09:29;;;;;;;6.68;2.97;;;;;;;-145.50;100.00;65435.88;6144777;23;20104;-68
2023/04/19 08:11:56;;;;;;;5.00;2.33;;;;;;;-145.50;100.00;65435.88;6137156;23;20031;-68
2023/04/19 08:14:23;;;;;;;7.45;2.70;;;;;;;-145.50;100.00;65435.88;6149931;23;20159;-68
2023/04/19 08:17:06;;;;;;;4.82;2.70;;;;;;;-145.50;100.00;65435.88;6142833;23;20098;-68
2023/04/19 08:19:52;;;;;;;4.28;2.58;;;;;;;-145.50;100.00;65435.88;6129676;23;20077;-68
2023/04/19 08:22:20;;;;;;;9.07;2.50;;;;;;;-145.50;100.00;65435.88;6142247;23;20021;-68
2023/04/19 08:24:49;;;;;;;3.17;2.13;;;;;;;-145.50;100.00;65435.88;6142536;23;20464;-70
2023/04/19 08:27:15;;;;;;;4.75;2.38;;;;;;;-145.50;100.00;65435.88;6143232;23;20025;-68
2023/04/19 08:29:42;;;;;;;4.65;2.40;;;;;;;-145.50;100.00;65435.88;6149811;23;20029;-68
2023/04/19 08:32:10;;;;;;;3.83;2.13;;;;;;;-145.50;100.00;65435.88;6150576;23;20073;-70
2023/04/19 08:34:38;;;;;;;2.83;2.10;;;;;;;-145.50;100.00;65435.88;6142058;23;20032;-68
2023/04/19 08:37:08;;;;;;;3.65;2.10;;;;;;;-145.50;100.00;65435.88;6145853;23;20022;-68
2023/04/19 08:39:35;;;;;;;4.38;1.88;;;;;;;-145.50;100.00;65435.88;6136236;23;20031;-68
2023/04/19 08:42:07;;;;;;;5.25;1.92;;;;;;;-145.50;100.00;65435.88;6150229;23;20049;-68
2023/04/19 08:44:56;;;;;;;4.28;1.90;;;;;;;-145.50;100.00;65435.88;6120822;23;20026;-68
2023/04/19 08:47:44;;;;;;;3.90;2.03;;;;;;;-145.50;100.00;65435.88;6150398;23;20027;-69
2023/04/19 08:50:26;;;;;;;4.57;1.52;;;;;;;-145.50;100.00;65435.88;6136455;23;20457;-68
2023/04/19 08:53:10;;;;;;;3.40;1.80;;;;;;;-145.50;100.00;65435.88;6145070;23;20076;-68
2023/04/19 08:55:42;;;;;;;2.95;1.70;;;;;;;-145.50;100.00;65435.88;6150308;23;20057;-69
2023/04/19 08:58:25;;;;;;;5.78;1.65;;;;;;;-145.50;100.00;65435.88;6124996;23;20041;-68
2023/04/19 09:01:11;;;;;;;3.40;1.92;;;;;;;-145.50;100.00;65435.88;6127969;23;20461;-70
2023/04/19 09:03:58;;;;;;;4.75;2.33;;;;;;;-145.50;100.00;65435.88;6087300;23;20026;-71
2023/04/19 09:06:45;;;;;;;2.10;1.40;;;;;;;-145.50;100.00;65435.88;6115283;23;20105;-69
2023/04/19 09:09:21;;;;;;;3.47;1.73;;;;;;;-145.50;100.00;65435.88;6111623;23;20069;-69
2023/04/19 09:11:51;;;;;;;2.22;1.30;;;;;;;-145.50;100.00;65435.88;6105591;23;20442;-68
2023/04/19 09:14:20;;;;;;;4.07;1.60;;;;;;;-145.50;100.00;65435.88;6113235;23;20038;-69
2023/04/19 09:16:47;;;;;;;4.78;1.67;;;;;;;-145.50;100.00;65435.88;6120351;23;20026;-70
2023/04/19 09:19:15;;;;;;;2.97;1.40;;;;;;;-145.50;100.00;65435.88;6106726;23;20076;-68
2023/04/19 09:21:52;;;;;;;4.22;1.38;;;;;;;-145.50;100.00;65435.88;6115149;23;20389;-68
2023/04/19 09:24:37;;;;;;;6.93;1.98;;;;;;;-145.50;100.00;65435.88;6095544;23;20030;-69
2023/04/19 09:27:29;;;;;;;2.78;1.80;;;;;;;-145.50;100.00;65435.88;6120104;23;20021;-71
2023/04/19 09:29:58;;;;;;;3.95;1.70;;;;;;;-145.50;100.00;65435.88;6120727;23;20097;-69
2023/04/19 09:32:25;;;;;;;3.55;1.88;;;;;;;-145.50;100.00;65435.88;6107834;23;20032;-69
2023/04/19 09:34:55;;;;;;;4.07;1.80;;;;;;;-145.50;100.00;65435.88;6115733;23;20034;-68
2023/04/19 09:37:22;;;;;;;2.55;1.63;;;;;;;-145.50;100.00;65435.88;6112322;23;20021;-69
2023/04/19 09:40:23;;;;;;;3.03;1.55;;;;;;;-145.50;100.00;65435.88;6121074;23;20562;-68
2023/04/19 09:42:49;;;;;;;3.05;1.38;;;;;;;-145.50;100.00;65435.88;6112941;23;20056;-69
2023/04/19 09:45:19;;;;;;;2.70;1.73;;;;;;;-145.50;100.00;65435.88;6119715;23;20116;-71
2023/04/19 09:48:08;;;;;;;3.72;1.52;;;;;;;-145.50;100.00;65435.88;6083684;23;20022;-70
2023/04/19 09:50:36;;;;;;;2.92;1.70;;;;;;;-145.50;100.00;65435.88;6119795;23;20022;-70
2023/04/19 09:53:20;;;;;;;4.30;1.65;;;;;;;-145.50;100.00;65435.88;6120188;23;20087;-70
2023/04/19 09:55:47;;;;;;;4.13;1.67;;;;;;;-145.50;100.00;65435.88;6111647;23;20026;-69
2023/04/19 09:58:27;;;;;;;4.07;1.33;;;;;;;-145.50;100.00;65435.88;6097991;23;20033;-69
2023/04/19 10:01:04;;;;;;;2.78;1.63;;;;;;;-145.50;100.00;65435.88;6106776;23;20409;-70
2023/04/19 10:03:34;;;;;;;3.35;1.67;;;;;;;-145.50;100.00;65435.88;6141400;23;20029;-69
2023/04/19 10:06:02;;;;;;;3.17;1.80;;;;;;;-145.50;100.00;65435.88;6143231;23;20029;-69
2023/04/19 10:08:36;;;;;;;3.35;1.50;;;;;;;-145.50;100.00;65435.88;6150809;23;20017;-69
2023/04/19 10:11:04;;;;;;;4.20;1.65;;;;;;;-145.50;100.00;65435.88;6150437;23;20029;-69
2023/04/19 10:13:33;;;;;;;4.07;1.85;;;;;;;-145.50;100.00;65435.88;6136559;23;20108;-69
2023/04/19 10:16:00;;;;;;;4.55;1.73;;;;;;;-145.50;100.00;65435.88;6144407;23;20108;-68
2023/04/19 10:18:45;;;;;;;3.83;1.55;;;;;;;-145.50;100.00;65435.88;6119284;23;20057;-71
2023/04/19 10:21:12;;;;;;;3.30;1.70;;;;;;;-145.50;100.00;65435.88;6149604;23;20026;-72
2023/04/19 10:23:39;;;;;;;4.78;1.80;;;;;;;-145.50;100.00;65435.88;6142262;23;20174;-72
2023/04/19 10:26:06;;;;;;;2.50;1.50;;;;;;;-145.50;100.00;65435.88;6150394;23;20026;-68
2023/04/19 10:28:35;;;;;;;3.17;1.60;;;;;;;-145.50;100.00;65435.88;6117887;23;20025;-70
2023/04/19 10:31:04;;;;;;;4.22;1.70;;;;;;;-145.50;100.00;65435.88;6110644;23;20029;-68
2023/04/19 10:33:35;;;;;;;6.13;1.90;;;;;;;-145.50;100.00;65435.88;6149334;23;20025;-67
2023/04/19 10:36:02;;;;;;;3.13;1.73;;;;;;;-145.50;100.00;65435.88;6115032;23;20025;-70
2023/04/19 10:38:44;;;;;;;3.22;1.67;;;;;;;-145.50;100.00;65435.88;6149849;23;20032;-70
2023/04/19 10:41:13;;;;;;;3.30;2.00;;;;;;;-145.50;100.00;65435.88;6113387;23;20394;-70
2023/04/19 10:43:50;;;;;;;4.13;1.70;;;;;;;-145.50;100.00;65435.88;6116530;23;20256;-70
2023/04/19 10:46:20;;;;;;;5.78;1.58;;;;;;;-145.50;100.00;65435.88;6115132;23;20025;-70
2023/04/19 10:48:53;;;;;;;3.47;1.52;;;;;;;-145.50;100.00;65435.88;6149325;23;20224;-69
2023/04/19 10:51:22;;;;;;;2.33;1.70;;;;;;;-145.50;100.00;65435.88;6149520;23;20025;-68
2023/04/19 10:53:56;;;;;;;3.72;2.00;;;;;;;-145.50;100.00;65435.88;6141616;23;20104;-71
2023/04/19 10:56:32;;;;;;;3.50;1.98;;;;;;;-145.50;100.00;65435.88;6117859;23;20025;-71
2023/04/19 10:59:12;;;;;;;3.38;2.05;;;;;;;-145.50;100.00;65435.88;6139401;23;20211;-69
2023/04/19 11:01:49;;;;;;;4.38;1.85;;;;;;;-145.50;100.00;65435.88;6149129;23;20022;-69
2023/04/19 11:04:31;;;;;;;5.55;2.10;;;;;;;-145.50;100.00;65435.88;6139451;23;20083;-69
2023/04/19 11:07:02;;;;;;;4.45;2.08;;;;;;;-145.50;100.00;65435.88;6149194;23;20029;-69
2023/04/19 11:09:34;;;;;;;3.35;2.10;;;;;;;-145.50;100.00;65435.88;6108227;23;20083;-69
2023/04/19 11:12:09;;;;;;;3.58;1.80;;;;;;;-145.50;100.00;65435.88;6146130;23;20124;-69
2023/04/19 11:14:44;;;;;;;4.28;2.22;;;;;;;-145.50;100.00;65435.88;6123992;23;20436;-69